createdAt,value
2019-02-18T00:02:10.635Z,15.07
2019-02-18T00:04:37.504Z,11.97
2019-02-18T00:07:13.806Z,12.37
2019-02-18T00:09:32.608Z,15.70
2019-02-18T00:11:59.769Z,16.17
2019-02-18T00:14:26.461Z,13.30
2019-02-18T00:16:53.146Z,12.83
2019-02-18T00:19:19.787Z,13.30
2019-02-18T00:21:46.569Z,15.97
2019-02-18T00:24:13.217Z,13.90
2019-02-18T00:26:39.852Z,16.50
2019-02-18T00:29:06.509Z,15.70
2019-02-18T00:31:33.162Z,14.30
2019-02-18T00:33:59.941Z,13.27
2019-02-18T00:36:26.585Z,15.67
2019-02-18T00:38:53.293Z,13.90
2019-02-18T00:41:19.982Z,15.50
2019-02-18T00:43:46.761Z,15.67
2019-02-18T00:46:13.416Z,15.00
2019-02-18T00:48:40.121Z,14.10
2019-02-18T00:51:06.738Z,14.80
2019-02-18T00:53:33.429Z,15.93
2019-02-18T00:56:00.052Z,14.00
2019-02-18T00:58:27.213Z,15.53
2019-02-18T01:00:53.871Z,13.30
2019-02-18T01:03:20.528Z,14.80
2019-02-18T01:05:47.226Z,16.43
2019-02-18T01:08:13.999Z,17.87
2019-02-18T01:10:40.680Z,15.10
2019-02-18T01:13:07.297Z,15.03
2019-02-18T01:15:33.965Z,15.43
2019-02-18T01:18:00.773Z,15.03
2019-02-18T01:20:27.505Z,15.37
2019-02-18T01:22:54.311Z,15.60
2019-02-18T01:25:20.965Z,14.83
2019-02-18T01:27:47.637Z,16.70
2019-02-18T01:30:15.224Z,14.37
2019-02-18T01:32:42.310Z,17.10
2019-02-18T01:35:09.003Z,14.27
2019-02-18T01:37:44.852Z,14.20
2019-02-18T01:40:07.440Z,13.47
2019-02-18T01:42:34.149Z,13.13
2019-02-18T01:45:00.825Z,18.07
2019-02-18T01:47:27.542Z,15.23
2019-02-18T01:49:54.385Z,12.50
2019-02-18T01:52:21.030Z,13.90
2019-02-18T01:54:47.805Z,16.23
2019-02-18T01:57:14.456Z,13.13
2019-02-18T01:59:41.137Z,15.83
2019-02-18T02:02:07.902Z,13.53
2019-02-18T02:04:34.658Z,13.70
2019-02-18T02:07:01.397Z,14.80
2019-02-18T02:09:28.168Z,14.10
2019-02-18T02:11:54.965Z,13.63
2019-02-18T02:14:21.580Z,13.57
2019-02-18T02:16:48.265Z,14.67
2019-02-18T02:19:14.903Z,14.70
2019-02-18T02:21:41.701Z,13.10
2019-02-18T02:24:08.336Z,15.30
2019-02-18T02:29:16.869Z,13.80
2019-02-18T02:31:43.727Z,16.70
2019-02-18T02:34:10.317Z,13.23
2019-02-18T02:36:37.105Z,12.37
2019-02-18T02:39:04.791Z,12.23
2019-02-18T02:41:31.432Z,13.53
2019-02-18T02:43:58.216Z,16.60
2019-02-18T02:46:24.983Z,14.00
2019-02-18T02:48:51.634Z,13.93
2019-02-18T02:51:18.298Z,18.30
2019-02-18T02:53:45.094Z,15.60
2019-02-18T02:56:11.750Z,17.00
2019-02-18T02:58:38.406Z,22.97
2019-02-18T03:01:05.038Z,12.80
2019-02-18T03:03:31.683Z,12.77
2019-02-18T03:05:58.502Z,14.83
2019-02-18T03:08:25.542Z,18.20
2019-02-18T03:10:52.229Z,15.07
2019-02-18T03:13:20.828Z,13.40
2019-02-18T03:15:47.561Z,14.63
2019-02-18T03:18:14.245Z,13.23
2019-02-18T03:20:40.987Z,11.53
2019-02-18T03:23:07.656Z,14.43
2019-02-18T03:25:34.768Z,18.53
2019-02-18T03:28:10.777Z,13.70
2019-02-18T03:30:43.798Z,14.90
2019-02-18T03:33:28.862Z,16.40
2019-02-18T03:35:55.577Z,11.60
2019-02-18T03:38:31.094Z,15.50
2019-02-18T03:40:50.766Z,14.20
2019-02-18T03:43:17.437Z,15.50
2019-02-18T03:45:44.165Z,13.33
2019-02-18T03:48:10.909Z,13.20
2019-02-18T03:50:37.670Z,15.30
2019-02-18T03:53:04.307Z,16.67
2019-02-18T03:55:31.693Z,14.20
2019-02-18T03:57:58.358Z,13.67
2019-02-18T04:00:25.047Z,15.30
2019-02-18T04:02:51.734Z,15.03
2019-02-18T04:05:18.554Z,16.83
2019-02-18T04:07:46.434Z,16.47
2019-02-18T04:10:13.602Z,23.33
2019-02-18T04:12:40.373Z,20.17
2019-02-18T04:15:11.800Z,14.83
2019-02-18T04:17:38.573Z,13.27
2019-02-18T04:20:06.381Z,15.57
2019-02-18T04:22:33.169Z,16.63
2019-02-18T04:24:59.805Z,17.37
2019-02-18T04:27:26.496Z,14.37
2019-02-18T04:29:53.178Z,13.80
2019-02-18T04:32:19.885Z,13.73
2019-02-18T04:34:48.221Z,13.90
2019-02-18T04:37:14.922Z,18.27
2019-02-18T04:39:41.597Z,17.30
2019-02-18T04:42:08.279Z,18.03
2019-02-18T04:44:35.058Z,17.17
2019-02-18T04:47:01.704Z,13.97
2019-02-18T04:49:28.481Z,19.60
2019-02-18T04:51:55.140Z,17.50
2019-02-18T04:54:21.816Z,16.93
2019-02-18T04:56:48.588Z,13.97
2019-02-18T04:59:15.255Z,16.50
2019-02-18T05:01:41.918Z,14.23
2019-02-18T05:04:08.609Z,15.77
2019-02-18T05:06:35.240Z,19.53
2019-02-18T05:09:05.401Z,15.87
2019-02-18T05:11:30.674Z,17.43
2019-02-18T05:13:57.372Z,14.90
2019-02-18T05:16:24.062Z,15.63
2019-02-18T05:18:51.601Z,14.73
2019-02-18T05:21:19.511Z,14.77
2019-02-18T05:23:46.129Z,15.20
2019-02-18T05:26:12.906Z,14.30
2019-02-18T05:28:39.547Z,15.70
2019-02-18T05:31:06.258Z,13.00
2019-02-18T05:33:32.940Z,14.40
2019-02-18T05:35:59.911Z,18.90
2019-02-18T05:38:26.638Z,14.97
2019-02-18T05:40:53.712Z,16.50
2019-02-18T05:43:21.805Z,13.20
2019-02-18T05:45:48.480Z,16.10
2019-02-18T05:48:15.300Z,14.83
2019-02-18T05:50:41.971Z,21.00
2019-02-18T05:53:08.742Z,14.40
2019-02-18T05:55:36.718Z,13.67
2019-02-18T05:58:03.461Z,13.70
2019-02-18T06:00:30.178Z,15.20
2019-02-18T06:02:56.883Z,20.83
2019-02-18T06:05:23.642Z,17.00
2019-02-18T06:07:50.392Z,16.30
2019-02-18T06:10:19.078Z,16.57
2019-02-18T06:12:45.745Z,15.50
2019-02-18T06:15:12.417Z,17.70
2019-02-18T06:17:39.174Z,17.57
2019-02-18T06:20:07.720Z,14.03
2019-02-18T06:22:35.566Z,13.67
2019-02-18T06:25:02.498Z,18.03
2019-02-18T06:27:30.949Z,18.60
2019-02-18T06:29:57.633Z,19.60
2019-02-18T06:32:24.371Z,19.53
2019-02-18T06:34:51.217Z,18.83
2019-02-18T06:37:18.141Z,18.67
2019-02-18T06:39:45.691Z,16.50
2019-02-18T06:42:13.354Z,25.30
2019-02-18T06:44:41.961Z,18.37
2019-02-18T06:47:09.633Z,21.10
2019-02-18T06:49:36.367Z,22.47
2019-02-18T06:52:03.724Z,18.80
2019-02-18T06:54:30.395Z,21.87
2019-02-18T06:57:01.780Z,20.83
2019-02-18T06:59:36.229Z,20.53
2019-02-18T07:02:04.768Z,20.07
2019-02-18T07:04:36.172Z,21.67
2019-02-18T07:07:13.610Z,23.13
2019-02-18T07:09:51.699Z,18.20
2019-02-18T07:12:20.413Z,21.53
2019-02-18T07:14:47.085Z,21.50
2019-02-18T07:17:13.727Z,18.57
2019-02-18T07:19:40.413Z,17.17
2019-02-18T07:22:07.161Z,26.53
2019-02-18T07:24:33.837Z,20.03
2019-02-18T07:27:00.584Z,24.07
2019-02-18T07:29:27.365Z,17.60
2019-02-18T07:31:54.065Z,20.03
2019-02-18T07:34:20.889Z,22.43
2019-02-18T07:36:47.623Z,23.87
2019-02-18T07:39:14.318Z,28.20
2019-02-18T07:41:41.072Z,23.10
2019-02-18T07:44:07.717Z,21.50
2019-02-18T07:46:34.409Z,26.53
2019-02-18T07:49:01.208Z,22.97
2019-02-18T07:51:27.929Z,25.60
2019-02-18T07:53:54.652Z,26.80
2019-02-18T07:56:21.345Z,30.00
2019-02-18T07:58:48.134Z,24.70
2019-02-18T08:01:14.819Z,27.70
2019-02-18T08:03:41.543Z,29.60
2019-02-18T08:06:08.321Z,24.70
2019-02-18T08:08:34.956Z,28.20
2019-02-18T08:11:01.725Z,27.00
2019-02-18T08:13:28.508Z,25.47
2019-02-18T08:15:55.266Z,26.50
2019-02-18T08:18:21.952Z,25.90
2019-02-18T08:20:48.579Z,23.53
2019-02-18T08:23:15.350Z,26.40
2019-02-18T08:25:42.094Z,23.97
2019-02-18T08:28:08.865Z,25.67
2019-02-18T08:30:35.665Z,27.30
2019-02-18T08:33:02.446Z,22.40
2019-02-18T08:35:29.281Z,26.30
2019-02-18T08:37:56.056Z,26.83
2019-02-18T08:40:22.887Z,26.43
2019-02-18T08:42:49.667Z,26.03
2019-02-18T08:45:16.448Z,25.03
2019-02-18T08:47:43.085Z,28.23
2019-02-18T08:50:10.863Z,33.73
2019-02-18T08:52:37.541Z,28.63
2019-02-18T08:55:07.474Z,28.83
2019-02-18T08:57:34.233Z,30.07
2019-02-18T09:00:01.070Z,33.43
2019-02-18T09:02:27.654Z,31.10
2019-02-18T09:04:54.926Z,32.43
2019-02-18T09:07:21.714Z,26.47
2019-02-18T09:09:48.503Z,29.40
2019-02-18T09:12:15.246Z,29.57
2019-02-18T09:14:42.143Z,29.53
2019-02-18T09:17:09.383Z,27.50
2019-02-18T09:19:36.166Z,31.53
2019-02-18T09:22:21.593Z,28.10
2019-02-18T09:24:50.159Z,24.83
2019-02-18T09:27:16.799Z,24.93
2019-02-18T09:29:43.566Z,30.40
2019-02-18T09:32:10.398Z,26.73
2019-02-18T09:34:37.221Z,27.87
2019-02-18T09:37:03.974Z,23.60
2019-02-18T09:39:31.645Z,30.20
2019-02-18T09:41:58.643Z,27.13
2019-02-18T09:44:25.335Z,25.90
2019-02-18T09:46:52.040Z,24.43
2019-02-18T09:49:18.815Z,27.73
2019-02-18T09:51:45.582Z,28.00
2019-02-18T09:54:12.270Z,29.60
2019-02-18T09:56:39.052Z,26.63
2019-02-18T09:59:05.783Z,30.00
2019-02-18T10:01:32.585Z,28.63
2019-02-18T10:03:59.524Z,24.67
2019-02-18T10:06:26.335Z,27.30
2019-02-18T10:08:52.983Z,25.00
2019-02-18T10:11:19.645Z,29.30
2019-02-18T10:13:46.300Z,26.80
2019-02-18T10:16:12.989Z,29.30
2019-02-18T10:18:39.731Z,35.13
2019-02-18T10:21:06.415Z,29.33
2019-02-18T10:23:33.110Z,25.50
2019-02-18T10:25:59.860Z,26.07
2019-02-18T10:28:26.540Z,28.90
2019-02-18T10:30:53.448Z,25.93
2019-02-18T10:33:20.266Z,24.67
2019-02-18T10:35:46.927Z,28.30
2019-02-18T10:38:13.611Z,23.83
2019-02-18T10:40:40.350Z,28.83
2019-02-18T10:43:06.986Z,30.23
2019-02-18T10:45:33.658Z,26.27
2019-02-18T10:48:00.426Z,21.00
2019-02-18T10:50:27.203Z,24.17
2019-02-18T10:52:54.071Z,23.40
2019-02-18T10:55:20.911Z,28.63
2019-02-18T10:57:47.691Z,29.70
2019-02-18T11:00:15.837Z,20.00
2019-02-18T11:02:42.712Z,20.63
2019-02-18T11:05:09.495Z,19.03
2019-02-18T11:07:36.121Z,21.20
2019-02-18T11:10:13.621Z,22.03
2019-02-18T11:12:40.264Z,23.43
2019-02-18T11:15:09.450Z,21.00
2019-02-18T11:17:38.949Z,21.40
2019-02-18T11:20:07.074Z,20.80
2019-02-18T11:22:33.806Z,18.70
2019-02-18T11:25:00.625Z,20.03
2019-02-18T11:27:27.321Z,17.00
2019-02-18T11:29:54.085Z,17.40
2019-02-18T11:32:20.822Z,23.13
2019-02-18T11:34:47.938Z,18.47
2019-02-18T11:37:14.777Z,17.10
2019-02-18T11:39:41.507Z,20.50
2019-02-18T11:42:08.277Z,17.67
2019-02-18T11:44:35.037Z,21.37
2019-02-18T11:47:01.826Z,16.77
2019-02-18T11:49:28.584Z,20.97
2019-02-18T11:51:55.280Z,15.90
2019-02-18T11:54:22.319Z,21.57
2019-02-18T11:56:49.299Z,18.80
2019-02-18T11:59:24.046Z,21.23
2019-02-18T12:01:44.537Z,21.10
2019-02-18T12:04:11.216Z,18.63
2019-02-18T12:06:37.954Z,16.57
2019-02-18T12:09:05.626Z,20.63
2019-02-18T12:11:38.082Z,16.43
2019-02-18T12:14:01.010Z,21.50
2019-02-18T12:16:27.787Z,16.30
2019-02-18T12:18:54.442Z,19.17
2019-02-18T12:21:21.237Z,19.13
2019-02-18T12:23:47.898Z,25.47
2019-02-18T12:26:14.536Z,16.40
2019-02-18T12:28:41.439Z,16.00
2019-02-18T12:31:08.324Z,14.93
2019-02-18T12:33:35.030Z,16.83
2019-02-18T12:36:01.950Z,20.20
2019-02-18T12:38:29.323Z,18.47
2019-02-18T12:40:56.183Z,16.90
2019-02-18T12:43:22.837Z,16.47
2019-02-18T12:45:49.663Z,28.00
2019-02-18T12:48:16.902Z,19.20
2019-02-18T12:50:43.688Z,20.70
2019-02-18T12:53:10.339Z,15.53
2019-02-18T12:55:37.164Z,16.17
2019-02-18T12:58:03.915Z,17.50
2019-02-18T13:00:31.156Z,16.50
2019-02-18T13:02:57.937Z,15.53
2019-02-18T13:05:24.801Z,14.80
2019-02-18T13:07:51.663Z,19.30
2019-02-18T13:10:18.941Z,19.87
2019-02-18T13:12:45.699Z,18.40
2019-02-18T13:15:14.036Z,15.87
2019-02-18T13:17:42.750Z,20.93
2019-02-18T13:20:09.434Z,18.40
2019-02-18T13:22:36.122Z,17.50
2019-02-18T13:25:03.187Z,15.37
2019-02-18T13:27:29.989Z,19.10
2019-02-18T13:29:56.676Z,15.57
2019-02-18T13:32:23.773Z,14.70
2019-02-18T13:34:50.493Z,12.87
2019-02-18T13:37:17.302Z,20.50
2019-02-18T13:39:43.958Z,14.47
2019-02-18T13:42:10.665Z,15.93
2019-02-18T13:44:37.311Z,15.93
2019-02-18T13:47:04.549Z,15.00
2019-02-18T13:49:31.327Z,20.00
2019-02-18T13:51:58.586Z,14.00
2019-02-18T13:54:25.514Z,14.33
2019-02-18T13:56:52.203Z,17.50
2019-02-18T13:59:18.954Z,17.63
2019-02-18T14:01:45.687Z,19.00
2019-02-18T14:04:12.341Z,20.70
2019-02-18T14:06:39.089Z,15.60
2019-02-18T14:09:06.214Z,13.70
2019-02-18T14:11:32.965Z,18.97
2019-02-18T14:13:59.633Z,18.60
2019-02-18T14:16:27.243Z,14.87
2019-02-18T14:18:56.373Z,16.60
2019-02-18T14:21:27.306Z,15.33
2019-02-18T14:23:54.290Z,15.43
2019-02-18T14:26:22.180Z,22.33
2019-02-18T14:28:49.116Z,16.10
2019-02-18T14:31:15.766Z,17.40
2019-02-18T14:33:42.566Z,16.23
2019-02-18T14:36:09.341Z,14.23
2019-02-18T14:38:36.074Z,22.67
2019-02-18T14:41:02.906Z,15.90
2019-02-18T14:43:29.589Z,15.70
2019-02-18T14:45:56.700Z,17.70
2019-02-18T14:48:23.529Z,19.60
2019-02-18T14:50:56.495Z,16.53
2019-02-18T14:53:19.026Z,15.70
2019-02-18T14:55:45.877Z,16.87
2019-02-18T14:58:12.830Z,13.57
2019-02-18T15:00:40.736Z,15.20
2019-02-18T15:03:07.909Z,10.83
2019-02-18T15:05:34.676Z,13.37
2019-02-18T15:08:01.480Z,15.30
2019-02-18T15:10:28.221Z,10.90
2019-02-18T15:12:54.856Z,15.13
2019-02-18T15:15:21.713Z,14.30
2019-02-18T15:17:48.399Z,17.30
2019-02-18T15:20:15.074Z,17.57
2019-02-18T15:22:41.794Z,18.83
2019-02-18T15:25:09.565Z,12.63
2019-02-18T15:27:36.321Z,10.93
2019-02-18T15:30:07.310Z,12.07
2019-02-18T15:32:34.897Z,13.33
2019-02-18T15:35:01.673Z,11.73
2019-02-18T15:37:28.838Z,13.07
2019-02-18T15:39:55.679Z,10.10
2019-02-18T15:42:22.517Z,14.83
2019-02-18T15:44:49.371Z,14.90
2019-02-18T15:47:16.391Z,13.00
2019-02-18T15:49:43.874Z,13.13
2019-02-18T15:52:11.577Z,10.73
2019-02-18T15:54:38.444Z,14.60
2019-02-18T15:57:05.948Z,17.13
2019-02-18T15:59:32.689Z,12.23
2019-02-18T16:01:59.461Z,14.33
2019-02-18T16:04:26.108Z,9.30
2019-02-18T16:06:52.784Z,10.47
2019-02-18T16:09:19.457Z,10.90
2019-02-18T16:11:46.270Z,10.27
2019-02-18T16:14:13.376Z,12.10
2019-02-18T16:16:40.027Z,10.17
2019-02-18T16:19:06.753Z,14.50
2019-02-18T16:21:33.444Z,13.13
2019-02-18T16:24:00.131Z,10.90
2019-02-18T16:26:26.772Z,14.30
2019-02-18T16:28:54.649Z,13.63
2019-02-18T16:31:21.347Z,13.63
2019-02-18T16:33:48.181Z,9.90
2019-02-18T16:36:14.934Z,12.47
2019-02-18T16:38:41.620Z,12.80
2019-02-18T16:41:08.398Z,11.00
2019-02-18T16:43:35.756Z,16.77
2019-02-18T16:46:02.553Z,13.20
2019-02-18T16:48:29.682Z,14.47
2019-02-18T16:50:56.585Z,17.27
2019-02-18T16:53:23.293Z,13.37
2019-02-18T16:55:50.041Z,12.87
2019-02-18T16:58:16.721Z,12.83
2019-02-18T17:00:43.541Z,16.17
2019-02-18T17:03:10.190Z,16.93
2019-02-18T17:05:36.893Z,12.10
2019-02-18T17:08:03.639Z,12.17
2019-02-18T17:10:30.615Z,10.50
2019-02-18T17:12:57.376Z,13.50
2019-02-18T17:15:24.030Z,13.90
2019-02-18T17:17:50.697Z,11.90
2019-02-18T17:20:17.333Z,15.20
2019-02-18T17:22:44.133Z,10.87
2019-02-18T17:25:12.045Z,11.60
2019-02-18T17:27:38.845Z,13.40
2019-02-18T17:30:11.665Z,19.40
2019-02-18T17:32:38.462Z,12.10
2019-02-18T17:35:08.152Z,15.77
2019-02-18T17:37:34.857Z,14.50
2019-02-18T17:40:01.794Z,15.93
2019-02-18T17:42:28.612Z,18.03
2019-02-18T17:44:55.746Z,13.43
2019-02-18T17:47:22.486Z,20.43
2019-02-18T17:49:49.254Z,15.80
2019-02-18T17:52:15.915Z,17.50
2019-02-18T17:54:42.620Z,14.70
2019-02-18T17:57:09.467Z,24.33
2019-02-18T17:59:36.372Z,17.60
2019-02-18T18:02:03.114Z,20.30
2019-02-18T18:04:30.188Z,20.90
2019-02-18T18:06:56.985Z,18.53
2019-02-18T18:09:23.750Z,24.83
2019-02-18T18:11:50.573Z,15.67
2019-02-18T18:14:17.270Z,16.00
2019-02-18T18:16:44.003Z,17.13
2019-02-18T18:19:10.745Z,16.27
2019-02-18T18:21:37.554Z,15.83
2019-02-18T18:24:04.692Z,12.87
2019-02-18T18:26:31.406Z,15.13
2019-02-18T18:28:58.155Z,15.27
2019-02-18T18:31:24.963Z,20.37
2019-02-18T18:33:51.649Z,20.23
2019-02-18T18:36:18.501Z,14.20
2019-02-18T18:38:45.121Z,14.37
2019-02-18T18:41:11.776Z,15.30
2019-02-18T18:43:38.443Z,12.10
2019-02-18T18:46:05.247Z,16.40
2019-02-18T18:48:31.981Z,10.53
2019-02-18T18:50:58.640Z,10.63
2019-02-18T18:53:25.313Z,14.13
2019-02-18T18:55:52.069Z,13.63
2019-02-18T18:58:18.736Z,13.23
2019-02-18T19:00:45.809Z,10.77
2019-02-18T19:03:12.625Z,14.80
2019-02-18T19:05:39.424Z,12.57
2019-02-18T19:08:06.197Z,15.30
2019-02-18T19:10:32.832Z,14.87
2019-02-18T19:12:59.509Z,13.03
2019-02-18T19:15:26.453Z,16.33
2019-02-18T19:17:53.970Z,11.70
2019-02-18T19:20:20.713Z,11.83
2019-02-18T19:22:47.470Z,14.73
2019-02-18T19:25:14.312Z,14.80
2019-02-18T19:27:41.081Z,13.43
2019-02-18T19:30:22.880Z,12.67
2019-02-18T19:32:49.617Z,9.80
2019-02-18T19:35:16.322Z,11.83
2019-02-18T19:37:43.013Z,11.73
2019-02-18T19:40:11.253Z,12.90
2019-02-18T19:42:38.211Z,16.27
2019-02-18T19:45:11.453Z,13.73
2019-02-18T19:47:38.574Z,10.57
2019-02-18T19:50:06.709Z,12.30
2019-02-18T19:52:33.381Z,11.37
2019-02-18T19:55:00.222Z,12.30
2019-02-18T19:57:26.872Z,15.73
2019-02-18T19:59:53.497Z,12.00
2019-02-18T20:02:20.265Z,14.00
2019-02-18T20:04:47.325Z,14.87
2019-02-18T20:07:14.117Z,21.40
2019-02-18T20:09:41.497Z,15.37
2019-02-18T20:12:08.316Z,13.60
2019-02-18T20:14:35.373Z,13.87
2019-02-18T20:17:02.510Z,11.70
2019-02-18T20:19:29.971Z,11.67
2019-02-18T20:21:57.014Z,10.70
2019-02-18T20:24:24.099Z,16.93
2019-02-18T20:26:51.024Z,17.03
2019-02-18T20:29:18.175Z,14.50
2019-02-18T20:31:45.647Z,11.17
2019-02-18T20:34:12.796Z,11.63
2019-02-18T20:36:41.030Z,18.60
2019-02-18T20:39:08.359Z,13.07
2019-02-18T20:41:35.645Z,16.60
2019-02-18T20:44:07.481Z,20.53
2019-02-18T20:46:32.447Z,17.70
2019-02-18T20:49:01.514Z,18.57
2019-02-18T20:51:30.598Z,12.17
2019-02-18T20:53:57.411Z,13.87
2019-02-18T20:56:24.351Z,21.13
2019-02-18T20:58:51.037Z,15.70
2019-02-18T21:01:17.692Z,11.87
2019-02-18T21:03:44.593Z,14.63
2019-02-18T21:06:11.321Z,12.73
2019-02-18T21:08:38.013Z,9.70
2019-02-18T21:11:04.771Z,11.50
2019-02-18T21:13:31.390Z,13.30
2019-02-18T21:15:58.169Z,13.17
2019-02-18T21:18:24.913Z,16.73
2019-02-18T21:20:51.652Z,19.50
2019-02-18T21:23:18.406Z,19.83
2019-02-18T21:25:45.197Z,21.40
2019-02-18T21:28:11.857Z,20.20
2019-02-18T21:30:38.631Z,22.57
2019-02-18T21:33:05.610Z,19.93
2019-02-18T21:35:32.313Z,17.10
2019-02-18T21:37:59.049Z,21.70
2019-02-18T21:40:26.297Z,21.77
2019-02-18T21:42:54.092Z,17.50
2019-02-18T21:45:20.731Z,19.73
2019-02-18T21:47:47.410Z,21.27
2019-02-18T21:50:14.057Z,19.17
2019-02-18T21:52:40.839Z,15.30
2019-02-18T21:55:09.094Z,22.20
2019-02-18T21:57:35.898Z,15.00
2019-02-18T22:00:07.467Z,14.70
2019-02-18T22:02:34.153Z,18.83
2019-02-18T22:05:00.923Z,15.87
2019-02-18T22:07:27.698Z,13.93
2019-02-18T22:09:54.325Z,17.90
2019-02-18T22:12:21.003Z,12.93
2019-02-18T22:14:47.693Z,13.33
2019-02-18T22:17:14.402Z,14.70
2019-02-18T22:19:41.209Z,13.80
2019-02-18T22:22:07.848Z,13.67
2019-02-18T22:24:34.620Z,13.50
2019-02-18T22:27:01.324Z,12.80
2019-02-18T22:29:28.489Z,13.10
2019-02-18T22:31:55.440Z,12.93
2019-02-18T22:34:22.175Z,12.70
2019-02-18T22:36:48.962Z,12.50
2019-02-18T22:39:15.805Z,11.87
2019-02-18T22:41:42.561Z,22.30
2019-02-18T22:44:09.185Z,15.07
2019-02-18T22:46:35.876Z,20.40
2019-02-18T22:49:02.818Z,14.00
2019-02-18T22:51:29.488Z,17.70
2019-02-18T22:53:56.184Z,13.33
2019-02-18T22:56:22.809Z,15.00
2019-02-18T22:58:49.494Z,13.60
2019-02-18T23:01:17.041Z,12.80
2019-02-18T23:03:43.772Z,13.30
2019-02-18T23:06:10.537Z,20.97
2019-02-18T23:08:37.410Z,14.63
2019-02-18T23:11:04.057Z,15.43
2019-02-18T23:13:30.718Z,14.87
2019-02-18T23:15:57.461Z,15.93
2019-02-18T23:18:24.248Z,13.50
2019-02-18T23:20:51.079Z,16.10
2019-02-18T23:23:17.857Z,20.70
2019-02-18T23:25:44.541Z,12.33
2019-02-18T23:28:11.280Z,14.77
2019-02-18T23:30:38.015Z,14.50
2019-02-18T23:33:04.715Z,15.60
2019-02-18T23:35:31.397Z,17.93
2019-02-18T23:37:58.080Z,17.93
2019-02-18T23:40:24.708Z,15.03
2019-02-18T23:42:51.516Z,14.77
2019-02-18T23:45:18.249Z,17.83
2019-02-18T23:47:44.998Z,19.27
2019-02-18T23:50:11.625Z,19.90
2019-02-18T23:52:38.346Z,16.10
2019-02-18T23:55:04.975Z,16.50
2019-02-18T23:57:31.665Z,18.83
2019-02-18T23:59:58.322Z,16.80
